Time;durP1;ratioP1;P1;durP2;ratioP2;P2;SDS_P1;SDS_P2;PMS_P1;PMS_P2;Temp;Humidity;BMP_temperature;BMP_pressure;BME280_temperature;BME280_humidity;BME280_pressure;Samples;Min_cycle;Max_cycle;Signal;HPM_P1;HPM_P2
2021/01/25 00:00:21;;;;;;;10.60;7.72;;;;;;;1.09;88.03;98986.95;1560669;90;21237;-79
2021/01/25 00:02:48;;;;;;;17.75;9.03;;;;;;;1.12;87.95;98994.15;1567071;89;21241;-79
2021/01/25 00:05:14;;;;;;;21.80;9.63;;;;;;;1.13;88.02;98993.30;1565623;90;21839;-79
2021/01/25 00:07:41;;;;;;;11.43;7.92;;;;;;;1.15;88.01;98994.56;1565912;90;21253;-79
2021/01/25 00:10:08;;;;;;;15.05;9.10;;;;;;;1.15;87.94;98997.95;1569730;89;21241;-79
2021/01/25 00:12:34;;;;;;;13.53;8.25;;;;;;;1.13;87.93;99000.94;1567409;90;22347;-78
2021/01/25 00:15:01;;;;;;;13.58;8.83;;;;;;;1.13;87.99;98996.27;1569943;90;21290;-78
2021/01/25 00:17:27;;;;;;;14.68;8.68;;;;;;;1.13;87.99;99000.94;1572097;89;21577;-78
2021/01/25 00:19:53;;;;;;;15.08;9.03;;;;;;;1.15;88.04;99008.14;1558161;86;1984453;-78
2021/01/25 00:22:20;;;;;;;17.15;9.53;;;;;;;1.16;88.03;99011.10;1627865;86;21111;-78
2021/01/25 00:24:47;;;;;;;17.20;10.30;;;;;;;1.15;88.01;99010.68;1641647;87;21086;-78
2021/01/25 00:27:13;;;;;;;16.75;9.25;;;;;;;1.15;88.01;99006.02;1641646;87;22093;-78
2021/01/25 00:29:39;;;;;;;16.12;9.93;;;;;;;1.15;87.98;99010.68;1638068;85;21278;-78
2021/01/25 00:32:06;;;;;;;10.58;6.22;;;;;;;1.15;87.96;99011.11;1627237;86;21266;-78
2021/01/25 00:34:32;;;;;;;12.37;8.30;;;;;;;1.13;87.94;99011.54;1633098;86;21220;-78
2021/01/25 00:36:59;;;;;;;11.63;8.68;;;;;;;1.11;87.92;99015.79;1627134;86;21189;-78
2021/01/25 00:39:25;;;;;;;18.37;9.43;;;;;;;1.09;87.93;99014.52;1590343;88;23581;-78
2021/01/25 00:41:51;;;;;;;20.97;9.98;;;;;;;1.09;87.99;99018.34;1630630;86;21233;-78
2021/01/25 00:44:18;;;;;;;21.60;10.50;;;;;;;1.09;88.01;99018.34;1627954;88;21193;-78
2021/01/25 00:46:44;;;;;;;8.18;6.25;;;;;;;1.09;88.01;99018.34;1627378;88;21532;-78
2021/01/25 00:49:10;;;;;;;13.95;7.80;;;;;;;1.08;88.00;99014.09;1627895;87;21509;-78
2021/01/25 00:51:37;;;;;;;10.63;6.97;;;;;;;1.09;88.00;99014.52;1627556;88;21236;-78
2021/01/25 00:54:03;;;;;;;8.48;5.50;;;;;;;1.08;87.98;99015.80;1627904;87;21218;-78
2021/01/25 00:56:29;;;;;;;7.47;5.83;;;;;;;1.07;87.95;99019.20;1627627;88;22233;-78
2021/01/25 00:58:55;;;;;;;6.67;5.25;;;;;;;1.05;87.97;99022.17;1627680;87;21725;-78
2021/01/25 01:01:22;;;;;;;10.50;6.33;;;;;;;1.04;87.99;99024.33;1628103;87;21670;-78
2021/01/25 01:03:48;;;;;;;8.20;5.62;;;;;;;1.04;88.04;99031.50;1627642;87;21283;-78
2021/01/25 01:06:14;;;;;;;7.28;5.10;;;;;;;1.08;88.09;99039.98;1627984;87;21217;-78
2021/01/25 01:08:40;;;;;;;5.80;4.72;;;;;;;1.09;88.10;99034.88;1627715;87;21218;-78
2021/01/25 01:11:07;;;;;;;9.00;4.95;;;;;;;1.10;88.10;99035.30;1628041;87;21500;-78
2021/01/25 01:13:33;;;;;;;6.00;4.80;;;;;;;1.12;88.08;99041.23;1627527;87;21233;-78
2021/01/25 01:15:59;;;;;;;6.15;4.87;;;;;;;1.13;88.10;99039.11;1627967;87;21238;-78
2021/01/25 01:18:25;;;;;;;6.20;5.25;;;;;;;1.16;88.11;99044.62;1627322;88;21202;-78
2021/01/25 01:20:52;;;;;;;6.78;4.92;;;;;;;1.16;88.10;99035.28;1625990;86;21190;-78
2021/01/25 01:23:18;;;;;;;7.67;5.80;;;;;;;1.16;88.07;99039.53;1627676;87;21205;-78
2021/01/25 01:25:44;;;;;;;9.63;6.83;;;;;;;1.18;88.05;99046.73;1627904;88;21247;-78
2021/01/25 01:28:11;;;;;;;9.95;7.53;;;;;;;1.18;88.08;99041.22;1627608;87;21243;-78
2021/01/25 01:30:37;;;;;;;10.65;7.40;;;;;;;1.21;88.12;99048.84;1627481;86;21246;-78
2021/01/25 01:33:03;;;;;;;11.65;8.38;;;;;;;1.20;88.07;99050.97;1612030;87;21206;-78
2021/01/25 01:35:37;;;;;;;8.40;7.50;;;;;;;1.20;88.00;99053.52;1627573;87;29638;-78
2021/01/25 01:38:04;;;;;;;8.58;6.53;;;;;;;1.18;88.00;99062.86;1628053;87;21225;-78
2021/01/25 01:40:30;;;;;;;7.62;6.42;;;;;;;1.17;88.04;99063.70;1627646;86;21241;-78
2021/01/25 01:42:56;;;;;;;11.08;7.20;;;;;;;1.18;88.09;99061.58;1627451;87;21229;-78
2021/01/25 01:45:23;;;;;;;7.95;6.53;;;;;;;1.19;88.09;99068.80;1628078;87;21238;-78
2021/01/25 01:47:49;;;;;;;9.23;7.75;;;;;;;1.20;88.12;99067.52;1627439;87;21209;-78
2021/01/25 01:50:15;;;;;;;9.90;7.25;;;;;;;1.22;88.11;99072.18;1627977;86;21243;-78
2021/01/25 01:52:42;;;;;;;10.55;7.53;;;;;;;1.20;88.06;99073.88;1628263;87;26982;-78
2021/01/25 01:55:10;;;;;;;9.73;7.55;;;;;;;1.20;88.08;99073.03;1627414;87;21205;-78
2021/01/25 01:57:37;;;;;;;10.53;7.22;;;;;;;1.21;88.10;99083.64;1627486;86;21197;-78
2021/01/25 02:00:09;;;;;;;9.35;6.80;;;;;;;1.22;88.09;99085.33;1627890;87;21261;-78
2021/01/25 02:02:35;;;;;;;8.50;6.58;;;;;;;1.20;88.06;99085.34;1627920;87;21222;-78
2021/01/25 02:05:03;;;;;;;9.10;6.55;;;;;;;1.22;88.11;99091.27;1628051;87;21274;-78
2021/01/25 02:07:30;;;;;;;7.97;6.50;;;;;;;1.21;88.10;99094.67;1628469;87;21253;-78
2021/01/25 02:09:59;;;;;;;8.08;5.92;;;;;;;1.22;88.12;99096.36;1628166;88;21186;-78
2021/01/25 02:12:25;;;;;;;13.18;8.53;;;;;;;1.23;88.14;99098.06;1627851;87;21258;-78
2021/01/25 02:14:52;;;;;;;15.85;8.38;;;;;;;1.25;88.13;99104.42;1627854;88;21205;-78
2021/01/25 02:17:18;;;;;;;12.23;8.28;;;;;;;1.26;88.14;99105.69;1626944;87;21679;-78
2021/01/25 02:20:11;;;;;;;11.70;8.18;;;;;;;1.26;88.11;99101.87;1628313;88;21230;-78
2021/01/25 02:23:18;;;;;;;12.35;7.90;;;;;;;1.27;88.12;99112.91;1627648;86;21221;-78
2021/01/25 02:26:08;;;;;;;10.43;7.47;;;;;;;1.26;88.08;99105.69;1590705;86;21541;-78
2021/01/25 02:28:37;;;;;;;10.03;6.97;;;;;;;1.25;88.06;99110.78;1587250;90;21502;-78
2021/01/25 02:31:08;;;;;;;8.88;6.22;;;;;;;1.24;88.09;99107.81;1601806;88;22127;-78
2021/01/25 02:33:45;;;;;;;8.93;5.53;;;;;;;1.24;88.07;99106.12;1612848;88;21280;-78
2021/01/25 02:36:14;;;;;;;9.43;6.33;;;;;;;1.21;88.00;99107.82;1614186;87;21243;-78
2021/01/25 02:38:44;;;;;;;7.75;6.35;;;;;;;1.21;88.06;99115.46;1614292;88;22468;-78
2021/01/25 02:41:13;;;;;;;8.18;6.40;;;;;;;1.21;88.06;99118.86;1601061;88;21502;-78
2021/01/25 02:43:41;;;;;;;12.15;6.70;;;;;;;1.19;88.00;99115.89;1614661;88;21672;-78
2021/01/25 02:46:09;;;;;;;10.78;7.28;;;;;;;1.19;88.11;99118.44;1590134;87;372480;-78
2021/01/25 02:48:36;;;;;;;8.23;5.58;;;;;;;1.21;88.12;99126.92;1614641;88;21236;-78
2021/01/25 02:51:06;;;;;;;10.88;6.62;;;;;;;1.22;88.12;99129.89;1614217;88;21280;-78
2021/01/25 02:53:32;;;;;;;8.28;6.25;;;;;;;1.21;88.13;99135.41;1614160;88;21287;-78
2021/01/25 02:56:01;;;;;;;7.80;5.03;;;;;;;1.23;88.15;99131.16;1614584;88;21309;-78
2021/01/25 02:58:28;;;;;;;6.53;4.58;;;;;;;1.23;88.12;99129.88;1613924;88;21247;-78
2021/01/25 03:00:54;;;;;;;5.65;4.85;;;;;;;1.25;88.16;99136.24;1614183;88;21243;-78
2021/01/25 03:03:23;;;;;;;5.85;4.90;;;;;;;1.25;88.14;99138.36;1614447;88;25214;-78
2021/01/25 03:05:49;;;;;;;6.17;5.37;;;;;;;1.26;88.14;99134.13;1613713;88;21278;-78
2021/01/25 03:08:16;;;;;;;;;;;;;;;1.24;88.07;99132.00;1616932;88;21420;-78
2021/01/25 03:10:42;;;;;;;7.28;5.90;;;;;;;1.24;88.11;99135.40;1613922;88;20341;-78
2021/01/25 03:13:08;;;;;;;7.05;6.22;;;;;;;1.24;88.09;99132.00;1610011;89;21208;-78
2021/01/25 03:15:37;;;;;;;8.25;6.60;;;;;;;1.22;88.11;99141.34;1587644;90;21222;-78
2021/01/25 03:18:04;;;;;;;9.33;6.70;;;;;;;1.23;88.14;99143.04;1579475;88;21138;-78
2021/01/25 03:20:31;;;;;;;8.45;5.75;;;;;;;1.22;88.04;99142.61;1591370;88;21185;-78
2021/01/25 03:22:57;;;;;;;6.85;5.83;;;;;;;1.18;88.05;99143.05;1603505;88;21154;-78
2021/01/25 03:25:23;;;;;;;6.72;5.15;;;;;;;1.20;88.10;99148.13;1614238;88;26741;-78
2021/01/25 03:27:50;;;;;;;7.53;6.10;;;;;;;1.19;88.09;99146.44;1616314;87;21928;-78
2021/01/25 03:30:16;;;;;;;6.95;5.62;;;;;;;1.15;88.01;99146.02;1615680;88;21653;-78
2021/01/25 03:32:43;;;;;;;9.50;7.05;;;;;;;1.15;88.10;99148.14;1632966;87;21925;-78
2021/01/25 03:35:11;;;;;;;7.55;5.58;;;;;;;1.14;88.06;99148.99;1632751;86;21157;-78
2021/01/25 03:37:38;;;;;;;7.80;6.20;;;;;;;1.14;88.05;99143.05;1632851;87;21901;-78
2021/01/25 03:40:07;;;;;;;7.90;6.85;;;;;;;1.11;88.06;99143.91;1632758;87;21138;-78
2021/01/25 03:42:35;;;;;;;6.72;5.62;;;;;;;1.12;88.11;99145.60;1632753;87;21143;-78
2021/01/25 03:45:02;;;;;;;7.55;5.45;;;;;;;1.09;88.07;99151.97;1632740;87;21257;-78
2021/01/25 03:47:29;;;;;;;6.15;5.42;;;;;;;1.07;88.02;99149.00;1602857;87;21162;-78
2021/01/25 03:49:55;;;;;;;7.00;5.80;;;;;;;1.05;88.08;99160.45;1632595;86;21150;-78
2021/01/25 03:52:22;;;;;;;6.72;5.28;;;;;;;1.04;88.09;99155.41;1628940;87;21138;-78
2021/01/25 03:54:48;;;;;;;6.55;5.47;;;;;;;1.02;88.02;99157.09;1630582;87;21126;-78
2021/01/25 03:57:15;;;;;;;7.03;5.35;;;;;;;1.00;88.06;99153.28;1632227;87;21170;-78
2021/01/25 03:59:41;;;;;;;5.47;4.42;;;;;;;0.99;88.02;99151.59;1636265;86;21153;-78
2021/01/25 04:02:07;;;;;;;5.17;4.50;;;;;;;0.95;88.02;99151.16;1627213;87;21158;-78
2021/01/25 04:04:33;;;;;;;5.78;4.67;;;;;;;0.95;88.10;99154.56;1630932;86;21187;-78
2021/01/25 04:07:00;;;;;;;5.40;4.83;;;;;;;0.95;88.09;99161.34;1631138;86;21166;-78
2021/01/25 04:09:26;;;;;;;5.58;4.55;;;;;;;0.94;88.11;99160.50;1626707;87;21179;-78
2021/01/25 04:11:52;;;;;;;5.53;4.80;;;;;;;0.94;88.09;99164.73;1628120;87;21166;-78
2021/01/25 04:14:18;;;;;;;5.53;4.55;;;;;;;0.95;88.12;99163.89;1626619;87;21149;-78
2021/01/25 04:16:45;;;;;;;5.72;4.72;;;;;;;0.96;88.15;99169.41;1630592;87;21567;-78
2021/01/25 04:19:11;;;;;;;4.30;3.90;;;;;;;0.97;88.17;99173.22;1624195;86;21112;-78
2021/01/25 04:21:37;;;;;;;6.67;5.55;;;;;;;0.98;88.16;99169.83;1627141;87;21750;-78
2021/01/25 04:24:04;;;;;;;6.92;5.05;;;;;;;0.99;88.14;99171.95;1632672;87;21187;-78
2021/01/25 04:26:31;;;;;;;8.83;5.45;;;;;;;0.98;88.13;99170.25;1632827;86;21655;-78
2021/01/25 04:28:57;;;;;;;8.98;6.00;;;;;;;0.97;88.08;99171.10;1633076;87;21533;-78
2021/01/25 04:31:23;;;;;;;5.95;4.95;;;;;;;0.99;88.15;99172.80;1633279;86;21602;-78
2021/01/25 04:33:49;;;;;;;8.73;5.60;;;;;;;0.99;88.16;99184.25;1633068;87;21170;-78
2021/01/25 04:36:16;;;;;;;8.90;6.42;;;;;;;1.01;88.13;99188.48;1633238;87;21162;-78
2021/01/25 04:38:42;;;;;;;7.00;5.20;;;;;;;0.99;88.13;99184.25;1633353;86;21134;-79
2021/01/25 04:41:09;;;;;;;6.97;5.12;;;;;;;1.03;88.20;99188.91;1633064;86;21136;-79
2021/01/25 04:43:35;;;;;;;7.22;5.58;;;;;;;1.02;88.19;99183.40;1632745;87;21170;-79
2021/01/25 04:46:02;;;;;;;11.78;7.60;;;;;;;1.03;88.15;99185.52;1633211;87;22213;-79
2021/01/25 04:48:30;;;;;;;19.32;12.03;;;;;;;1.02;88.14;99177.03;1633175;86;21154;-78
2021/01/25 04:50:59;;;;;;;24.60;15.98;;;;;;;1.02;88.16;99180.85;1632711;86;21147;-78
2021/01/25 04:53:25;;;;;;;19.70;14.35;;;;;;;1.05;88.24;99183.79;1632961;86;21205;-78
2021/01/25 04:55:51;;;;;;;19.62;13.20;;;;;;;1.05;88.15;99180.81;1633307;86;21158;-78
2021/01/25 04:58:19;;;;;;;16.70;11.35;;;;;;;1.02;88.12;99178.31;1633426;87;21149;-78
2021/01/25 05:00:45;;;;;;;18.23;11.40;;;;;;;1.03;88.16;99182.97;1633141;86;21601;-78
2021/01/25 05:03:11;;;;;;;11.20;8.83;;;;;;;1.03;88.14;99183.82;1632657;87;21142;-78
2021/01/25 05:05:38;;;;;;;13.93;10.05;;;;;;;1.02;88.16;99178.31;1629776;86;21146;-78
2021/01/25 05:08:05;;;;;;;14.13;9.80;;;;;;;1.02;88.16;99179.58;1633275;87;21158;-78
2021/01/25 05:10:33;;;;;;;14.20;9.35;;;;;;;1.01;88.13;99179.16;1632666;86;21248;-78
2021/01/25 05:12:59;;;;;;;14.55;8.28;;;;;;;1.00;88.13;99183.83;1629964;86;21142;-78
2021/01/25 05:15:35;;;;;;;12.82;8.78;;;;;;;0.99;88.12;99184.67;1631935;87;27317;-78
2021/01/25 05:18:04;;;;;;;13.78;8.35;;;;;;;0.98;88.16;99188.91;1622891;87;21564;-78
2021/01/25 05:20:32;;;;;;;15.40;9.98;;;;;;;0.98;88.15;99194.43;1633172;87;21154;-78
2021/01/25 05:23:05;;;;;;;14.35;8.83;;;;;;;0.98;88.17;99199.09;1632604;86;21191;-78
2021/01/25 05:25:33;;;;;;;11.08;7.35;;;;;;;0.99;88.17;99206.30;1623936;87;21171;-78
2021/01/25 05:28:00;;;;;;;9.50;6.87;;;;;;;0.99;88.21;99207.58;1630583;87;21134;-78
2021/01/25 05:30:28;;;;;;;13.32;7.80;;;;;;;0.99;88.18;99208.42;1605896;87;21195;-78
2021/01/25 05:32:58;;;;;;;12.00;7.17;;;;;;;1.01;88.23;99210.13;1641196;86;21158;-78
2021/01/25 05:35:28;;;;;;;10.90;7.12;;;;;;;0.99;88.18;99217.33;1646734;87;21193;-78
2021/01/25 05:38:07;;;;;;;11.25;8.08;;;;;;;1.00;88.16;99224.55;1646928;85;21210;-78
2021/01/25 05:40:36;;;;;;;9.58;6.53;;;;;;;0.98;88.14;99222.00;1647568;85;21150;-78
2021/01/25 05:43:14;;;;;;;11.50;6.87;;;;;;;0.96;88.14;99226.66;1643944;87;21175;-78
2021/01/25 05:45:41;;;;;;;10.18;6.15;;;;;;;0.96;88.17;99230.05;1645496;87;21570;-79
2021/01/25 05:48:07;;;;;;;;;;;;;;;0.97;88.20;99237.27;1648761;87;22073;-79
2021/01/25 05:50:40;;;;;;;10.28;6.42;;;;;;;0.97;88.21;99233.03;1647194;87;20680;-79
2021/01/25 05:53:09;;;;;;;10.43;6.17;;;;;;;0.97;88.21;99235.57;1646200;87;21572;-79
2021/01/25 05:55:36;;;;;;;10.43;6.90;;;;;;;0.98;88.21;99242.36;1644235;85;21141;-79
2021/01/25 05:58:04;;;;;;;8.68;6.15;;;;;;;0.97;88.18;99243.20;1646635;85;21150;-79
2021/01/25 06:00:32;;;;;;;13.32;6.83;;;;;;;0.97;88.19;99247.45;1644420;85;21617;-79
2021/01/25 06:02:58;;;;;;;12.13;7.25;;;;;;;0.99;88.24;99256.78;1646340;85;21158;-78
2021/01/25 06:05:40;;;;;;;14.20;7.50;;;;;;;1.00;88.26;99253.81;1646977;85;21165;-80
2021/01/25 06:08:25;;;;;;;12.43;7.47;;;;;;;1.02;88.23;99258.91;1643177;85;21181;-79
2021/01/25 06:11:21;;;;;;;10.70;6.72;;;;;;;1.02;88.20;99261.02;1643679;85;21178;-79
2021/01/25 06:13:55;;;;;;;;;;;;;;;1.03;88.20;99255.52;1645137;85;21558;-78
2021/01/25 06:16:25;;;;;;;6.35;4.72;;;;;;;1.02;88.21;99260.17;1609278;87;20862;-78
2021/01/25 06:18:58;;;;;;;6.78;5.22;;;;;;;1.02;88.17;99262.72;1637641;87;21201;-79
2021/01/25 06:21:34;;;;;;;6.28;5.33;;;;;;;0.99;88.17;99259.75;1643772;87;21289;-78
2021/01/25 06:24:03;;;;;;;7.47;5.42;;;;;;;1.01;88.21;99258.48;1639113;85;21463;-78
2021/01/25 06:26:34;;;;;;;8.75;6.25;;;;;;;0.99;88.17;99263.56;1643691;85;21183;-79
2021/01/25 06:29:08;;;;;;;10.18;5.75;;;;;;;0.97;88.20;99259.75;1645117;85;21169;-79
2021/01/25 06:31:38;;;;;;;8.00;5.37;;;;;;;0.99;88.24;99269.50;1643125;85;21290;-80
2021/01/25 06:34:07;;;;;;;8.45;5.83;;;;;;;0.98;88.21;99271.63;1631228;86;21146;-79
2021/01/25 06:36:34;;;;;;;10.75;7.67;;;;;;;1.02;88.27;99277.56;1627790;86;21154;-79
2021/01/25 06:39:04;;;;;;;8.83;6.37;;;;;;;1.03;88.29;99279.27;1633114;87;21716;-79
2021/01/25 06:41:38;;;;;;;8.63;6.58;;;;;;;1.05;88.31;99279.23;1632863;86;21153;-79
2021/01/25 06:44:06;;;;;;;9.68;6.40;;;;;;;1.07;88.32;99283.48;1629008;87;21210;-79
2021/01/25 06:46:37;;;;;;;10.30;6.53;;;;;;;1.08;88.25;99284.33;1617904;87;21198;-79
2021/01/25 06:49:06;;;;;;;9.15;7.03;;;;;;;1.09;88.30;99291.12;1632579;86;21203;-79
2021/01/25 06:51:32;;;;;;;9.15;6.90;;;;;;;1.10;88.29;99296.63;1632527;86;21208;-79
2021/01/25 06:54:02;;;;;;;7.72;6.10;;;;;;;1.12;88.31;99298.76;1628752;87;21209;-79
2021/01/25 06:56:47;;;;;;;8.43;6.10;;;;;;;1.14;88.31;99303.42;1630783;87;21548;-79
2021/01/25 06:59:15;;;;;;;9.45;6.22;;;;;;;1.14;88.29;99302.16;1618848;87;21539;-78
2021/01/25 07:01:41;;;;;;;8.15;6.55;;;;;;;1.12;88.22;99307.24;1610829;86;21143;-79
2021/01/25 07:04:14;;;;;;;11.08;7.28;;;;;;;1.12;88.23;99308.52;1633516;86;21260;-79
2021/01/25 07:06:49;;;;;;;10.63;6.97;;;;;;;1.12;88.25;99308.94;1628420;86;21440;-79
2021/01/25 07:09:33;;;;;;;10.58;6.80;;;;;;;1.12;88.26;99317.84;1630542;87;21569;-79
2021/01/25 07:12:04;;;;;;;13.05;7.03;;;;;;;1.14;88.28;99321.25;1629662;86;21195;-79
2021/01/25 07:14:33;;;;;;;12.43;8.60;;;;;;;1.13;88.27;99317.00;1630470;87;21230;-79
2021/01/25 07:17:00;;;;;;;12.80;8.10;;;;;;;1.16;88.33;99322.09;1627155;86;21857;-80
2021/01/25 07:19:27;;;;;;;9.45;7.50;;;;;;;1.18;88.32;99330.59;1630705;86;21246;-80
2021/01/25 07:21:55;;;;;;;12.20;8.58;;;;;;;1.19;88.35;99329.31;1627739;87;21154;-80
2021/01/25 07:24:27;;;;;;;10.43;8.15;;;;;;;1.19;88.27;99331.01;1626452;87;21230;-80
2021/01/25 07:26:56;;;;;;;11.33;8.68;;;;;;;1.19;88.29;99335.68;1628225;86;21241;-79
2021/01/25 07:29:23;;;;;;;13.90;8.93;;;;;;;1.18;88.22;99339.08;1627156;87;21646;-78
2021/01/25 07:31:52;;;;;;;15.50;9.58;;;;;;;1.20;88.28;99342.47;1641534;85;151776;-78
2021/01/25 07:34:19;;;;;;;13.05;8.43;;;;;;;1.22;88.34;99346.29;1626563;87;21214;-79
2021/01/25 07:36:45;;;;;;;14.75;10.23;;;;;;;1.24;88.32;99345.87;1642650;85;21664;-78
2021/01/25 07:39:14;;;;;;;13.68;9.43;;;;;;;1.26;88.38;99348.00;1623399;85;21650;-78
2021/01/25 07:41:42;;;;;;;15.60;10.10;;;;;;;1.27;88.32;99351.81;1643400;87;21241;-78
2021/01/25 07:44:10;;;;;;;14.75;9.38;;;;;;;1.24;88.26;99353.08;1641612;85;21681;-78
2021/01/25 07:46:38;;;;;;;15.03;9.13;;;;;;;1.26;88.30;99356.48;1623409;86;21236;-78
2021/01/25 07:49:05;;;;;;;19.37;10.35;;;;;;;1.29;88.35;99361.58;1645697;87;21245;-79
2021/01/25 07:51:40;;;;;;;;;;;;;;;1.29;88.32;99364.12;1645791;85;21201;-79
2021/01/25 07:54:05;;;;;;;17.90;10.38;;;;;;;1.32;88.36;99364.55;1644609;85;20608;-85
2021/01/25 07:56:31;;;;;;;20.75;10.58;;;;;;;1.35;88.37;99372.20;1642742;85;21229;-79
2021/01/25 07:59:07;;;;;;;;;;;;;;;1.35;88.35;99368.80;1646867;84;21210;-79
2021/01/25 08:02:04;;;;;;;21.77;10.93;;;;;;;1.36;88.38;99373.89;1616442;85;20360;-78
2021/01/25 08:04:34;;;;;;;21.95;12.40;;;;;;;1.39;88.37;99377.72;1595961;88;21812;-78
2021/01/25 08:07:01;;;;;;;25.75;13.18;;;;;;;1.43;88.44;99377.30;1597426;88;21764;-78
2021/01/25 08:09:28;;;;;;;24.40;12.95;;;;;;;1.46;88.45;99383.25;1594885;89;21221;-78
2021/01/25 08:11:56;;;;;;;21.87;11.68;;;;;;;1.48;88.47;99384.52;1597536;89;21539;-78
2021/01/25 08:14:27;;;;;;;19.50;11.73;;;;;;;1.50;88.41;99387.50;1596336;89;21199;-79
2021/01/25 08:17:02;;;;;;;22.02;12.13;;;;;;;1.52;88.41;99392.59;1589565;89;21289;-79
2021/01/25 08:19:33;;;;;;;22.10;12.28;;;;;;;1.54;88.46;99389.63;1595880;89;21254;-79
2021/01/25 08:22:26;;;;;;;23.85;11.93;;;;;;;1.56;88.44;99397.66;1596905;88;21216;-79
2021/01/25 08:24:56;;;;;;;23.25;12.70;;;;;;;1.57;88.41;99401.05;1595146;89;21289;-79
2021/01/25 08:27:26;;;;;;;22.93;12.65;;;;;;;1.57;88.38;99402.33;1600127;89;21157;-79
2021/01/25 08:30:06;;;;;;;21.52;12.07;;;;;;;1.58;88.42;99403.60;1600190;88;21178;-79
2021/01/25 08:32:47;;;;;;;15.68;9.85;;;;;;;1.59;88.38;99409.13;1592034;88;21178;-79
2021/01/25 08:35:16;;;;;;;18.87;10.40;;;;;;;1.58;88.32;99408.70;1575964;89;21199;-79
2021/01/25 08:37:42;;;;;;;14.95;9.35;;;;;;;1.56;88.31;99408.30;1545345;90;21215;-79
2021/01/25 08:40:22;;;;;;;16.42;9.48;;;;;;;1.56;88.32;99413.40;1550701;90;21160;-79
2021/01/25 08:42:49;;;;;;;14.87;8.78;;;;;;;1.55;88.30;99412.55;1574972;90;21158;-79
2021/01/25 08:45:27;;;;;;;;;;;;;;;1.53;88.28;99410.42;1577956;90;21218;-78
2021/01/25 08:48:04;;;;;;;14.95;9.15;;;;;;;1.57;88.38;99412.52;1574934;90;20279;-80
2021/01/25 08:50:30;;;;;;;17.05;9.80;;;;;;;1.59;88.43;99415.49;1568375;89;21182;-79
2021/01/25 08:53:08;;;;;;;21.48;10.70;;;;;;;1.61;88.38;99415.50;1574591;90;21178;-79
2021/01/25 08:55:42;;;;;;;17.32;11.20;;;;;;;1.64;88.43;99412.95;1573624;90;21172;-79
2021/01/25 08:58:31;;;;;;;19.45;11.12;;;;;;;1.66;88.43;99414.65;1574139;90;21397;-79
2021/01/25 09:00:59;;;;;;;15.45;10.00;;;;;;;1.67;88.39;99420.59;1575915;90;21181;-79
2021/01/25 09:03:25;;;;;;;15.43;9.80;;;;;;;1.70;88.38;99422.30;1575546;90;21200;-79
2021/01/25 09:05:54;;;;;;;15.13;10.05;;;;;;;1.72;88.35;99420.59;1574450;90;21151;-79
2021/01/25 09:08:22;;;;;;;15.10;10.70;;;;;;;1.71;88.34;99423.99;1573841;90;21171;-79
2021/01/25 09:10:48;;;;;;;14.85;10.58;;;;;;;1.74;88.37;99424.84;1572228;90;21249;-80
2021/01/25 09:13:15;;;;;;;14.73;9.93;;;;;;;1.73;88.26;99425.70;1573029;90;21245;-79
2021/01/25 09:15:41;;;;;;;18.35;10.45;;;;;;;1.73;88.33;99426.97;1573145;90;21722;-79
2021/01/25 09:18:09;;;;;;;16.67;11.03;;;;;;;1.75;88.33;99430.37;1572534;90;21242;-79
2021/01/25 09:20:36;;;;;;;18.70;11.18;;;;;;;1.75;88.33;99430.37;1570654;89;21245;-79
2021/01/25 09:23:02;;;;;;;16.10;10.63;;;;;;;1.78;88.37;99435.47;1571975;90;21265;-79
2021/01/25 09:25:28;;;;;;;17.12;10.43;;;;;;;1.82;88.39;99438.44;1569683;90;21234;-79
2021/01/25 09:27:55;;;;;;;18.35;10.45;;;;;;;1.85;88.34;99438.87;1574194;90;26099;-79
2021/01/25 09:30:25;;;;;;;17.82;11.03;;;;;;;1.85;88.32;99439.72;1573080;90;21265;-79
2021/01/25 09:32:51;;;;;;;13.30;8.98;;;;;;;1.88;88.35;99447.79;1579502;89;21232;-79
2021/01/25 09:35:18;;;;;;;13.55;9.43;;;;;;;1.91;88.34;99442.27;1589118;89;21293;-79
2021/01/25 09:37:44;;;;;;;;;;;;;;;1.94;88.36;99432.50;1559947;89;21452;-79
2021/01/25 09:40:11;;;;;;;14.58;8.20;;;;;;;2.01;88.45;99436.75;1588609;89;20829;-79
2021/01/25 09:42:38;;;;;;;10.23;7.60;;;;;;;2.06;88.40;99445.67;1586924;89;21262;-79
2021/01/25 09:45:06;;;;;;;12.03;8.23;;;;;;;2.05;88.27;99440.14;1587247;89;21280;-79
2021/01/25 09:47:32;;;;;;;11.40;8.23;;;;;;;2.08;88.34;99442.23;1587719;89;21277;-79
2021/01/25 09:49:59;;;;;;;12.78;8.83;;;;;;;2.11;88.32;99447.75;1586424;89;21248;-79
2021/01/25 09:52:26;;;;;;;14.75;9.20;;;;;;;2.14;88.36;99447.75;1587571;88;21223;-79
2021/01/25 09:54:52;;;;;;;15.75;9.03;;;;;;;2.17;88.36;99447.75;1587100;89;22483;-79
2021/01/25 09:57:19;;;;;;;13.15;8.40;;;;;;;2.20;88.37;99446.48;1587064;89;22082;-79
2021/01/25 09:59:45;;;;;;;12.15;8.10;;;;;;;2.18;88.26;99454.13;1587896;89;21637;-79
2021/01/25 10:02:11;;;;;;;12.10;8.50;;;;;;;2.18;88.22;99453.28;1585358;89;21229;-79
2021/01/25 10:04:39;;;;;;;14.05;8.58;;;;;;;2.13;88.17;99455.83;1587099;89;21217;-79
2021/01/25 10:07:05;;;;;;;13.58;8.80;;;;;;;2.10;88.11;99457.11;1585259;88;21309;-78
2021/01/25 10:09:32;;;;;;;15.25;9.05;;;;;;;2.07;88.11;99456.29;1587513;89;21459;-79
2021/01/25 10:11:58;;;;;;;17.15;10.40;;;;;;;2.04;88.14;99454.59;1586597;88;21265;-79
2021/01/25 10:14:24;;;;;;;16.35;11.03;;;;;;;2.03;88.18;99453.31;1587531;89;21241;-79
2021/01/25 10:16:51;;;;;;;16.25;10.98;;;;;;;2.04;88.24;99457.56;1587296;89;21226;-79
2021/01/25 10:19:17;;;;;;;18.87;11.28;;;;;;;2.05;88.24;99455.44;1587524;88;21250;-79
2021/01/25 10:21:43;;;;;;;19.32;11.08;;;;;;;2.05;88.27;99455.44;1586779;88;21242;-79
2021/01/25 10:24:10;;;;;;;15.72;10.68;;;;;;;2.06;88.27;99458.41;1587506;89;21234;-79
2021/01/25 10:26:36;;;;;;;18.90;12.23;;;;;;;2.08;88.35;99456.26;1588980;88;22372;-79
2021/01/25 10:29:03;;;;;;;15.23;10.13;;;;;;;2.05;88.22;99455.44;1586426;88;21261;-80
2021/01/25 10:31:29;;;;;;;15.13;10.95;;;;;;;2.05;88.24;99459.27;1587761;88;23317;-79
2021/01/25 10:33:55;;;;;;;18.85;12.00;;;;;;;2.08;88.33;99454.16;1587886;89;21266;-78
2021/01/25 10:36:21;;;;;;;19.07;11.80;;;;;;;2.08;88.30;99443.97;1587862;89;21997;-78
2021/01/25 10:38:48;;;;;;;18.65;11.53;;;;;;;2.10;88.29;99449.88;1586082;89;21864;-78
2021/01/25 10:41:15;;;;;;;16.35;10.68;;;;;;;2.12;88.29;99451.58;1584946;89;21258;-79
2021/01/25 10:43:43;;;;;;;16.00;10.43;;;;;;;2.16;88.36;99446.91;1586391;89;21674;-79
2021/01/25 10:46:15;;;;;;;15.93;10.35;;;;;;;2.22;88.40;99440.52;1589044;88;21630;-80
2021/01/25 10:48:41;;;;;;;15.35;10.80;;;;;;;2.26;88.38;99443.92;1586646;89;21178;-79
2021/01/25 10:51:09;;;;;;;12.68;9.73;;;;;;;2.28;88.34;99442.22;1587978;89;21193;-79
2021/01/25 10:53:35;;;;;;;16.05;10.08;;;;;;;2.30;88.31;99455.81;1591418;88;21155;-80
2021/01/25 10:56:02;;;;;;;16.42;10.75;;;;;;;2.29;88.29;99454.12;1588086;87;21178;-79
2021/01/25 10:58:28;;;;;;;12.18;9.43;;;;;;;2.33;88.32;99455.81;1588302;89;21142;-79
2021/01/25 11:00:54;;;;;;;13.43;9.38;;;;;;;2.33;88.26;99450.29;1586280;88;21191;-79
2021/01/25 11:03:20;;;;;;;11.08;9.28;;;;;;;2.35;88.22;99451.98;1585411;89;21593;-79
2021/01/25 11:05:46;;;;;;;;;;;;;;;2.34;88.22;99462.61;1279833;86;10000528;-80
2021/01/25 11:08:13;;;;;;;12.27;9.37;;;;;;;2.36;88.24;99460.06;1589396;87;20219;-79
2021/01/25 11:10:39;;;;;;;11.33;9.85;;;;;;;2.31;88.13;99470.27;1585271;89;21134;-80
2021/01/25 11:13:05;;;;;;;8.40;6.83;;;;;;;2.28;88.13;99469.84;1584882;89;21671;-79
2021/01/25 11:15:32;;;;;;;11.28;8.18;;;;;;;2.26;88.13;99469.00;1585383;89;21154;-79
2021/01/25 11:17:59;;;;;;;9.33;7.83;;;;;;;2.23;88.17;99470.70;1559490;89;21270;-79
2021/01/25 11:20:26;;;;;;;10.53;8.50;;;;;;;2.23;88.23;99472.83;1581666;89;21803;-79
2021/01/25 11:22:53;;;;;;;9.60;7.58;;;;;;;2.20;88.11;99470.28;1583050;89;21225;-79
2021/01/25 11:25:19;;;;;;;10.03;7.47;;;;;;;2.19;88.19;99469.00;1584487;89;21263;-79
2021/01/25 11:27:45;;;;;;;8.93;7.45;;;;;;;2.13;88.10;99471.12;1582866;89;21554;-79
2021/01/25 11:30:16;;;;;;;6.95;6.20;;;;;;;2.10;88.14;99471.55;1585344;89;21357;-79
2021/01/25 11:32:44;;;;;;;6.83;6.12;;;;;;;2.10;88.21;99478.78;1584018;89;21165;-78
2021/01/25 11:35:11;;;;;;;6.72;5.60;;;;;;;2.12;88.25;99480.05;1579960;89;21183;-78
2021/01/25 11:37:43;;;;;;;6.42;5.67;;;;;;;2.10;88.15;99475.37;1578834;89;21204;-79
2021/01/25 11:40:13;;;;;;;6.65;4.95;;;;;;;2.05;88.06;99474.56;1578011;89;21637;-78
2021/01/25 11:42:40;;;;;;;5.55;5.05;;;;;;;2.01;88.06;99470.31;1576903;89;21911;-78